Guernsey, WY (82214)

2:23 PM MST on February 14, 2016 (GMT -0700)
West Mariposa | | Change Station
CLOSE
Current Station
Personal Weather Station
Location: Wheatland, WY
Elevation: 4806 ft
Nearby Weather Stations
Active Advisory: High Wind Watch

Elev 4806 ft 42.05 °N, 104.97 °W | Updated 4 seconds ago

Mostly Cloudy
Mostly Cloudy
46.0 °F
Feels Like 39 °F
N
19.0
Wind Variable Wind from SSW
Gusts 22.4 mph

Today
High -- | Low -- °F
--% Chance of Precip.
Yesterday
High -- | Low -- °F
Precip. -- in
Pressure 29.81 in
Visibility 10.0 miles
Clouds Scattered Clouds 8000 ft
Overcast 9500 ft
Windchill 39 °F
Dew Point 24 °F
Humidity 41%
Rainfall 0.00 in
Snow Depth Not available.
6:57 AM 5:29 PM
Waxing Crescent, 45% visible
METAR KTOR 142053Z AUTO 28018G25KT 10SM SCT080 OVC095 10/M06 A2980 RMK AO2 PK WND 28029/2031 SLP094 T01001056 57008
Pressure 29.81 in
Visibility 10.0 miles
Clouds Scattered Clouds 8000 ft
Overcast 9500 ft
Windchill 39 °F
Dew Point 24 °F
Humidity 41%
Rainfall 0.00 in
Snow Depth Not available.
6:57 AM 5:29 PM
Waxing Crescent, 45% visible
METAR KTOR 142053Z AUTO 28018G25KT 10SM SCT080 OVC095 10/M06 A2980 RMK AO2 PK WND 28029/2031 SLP094 T01001056 57008

10-Day Weather Forecast

Almanac

Astronomy

Feb. 14, 2016 Rise Set
Actual Time
Civil Twilight
Nautical Twilight
Astronomical Twilight
Moon
Length of Visible Light
Length of Day
Tomorrow will be .
, % of the Moon is Illuminated

Today's Extremes

State Highs State Lows

Community

WunderPhotos

Upload Photos

1,892,887 photos uploaded!

WunderBlog® & News

Nearby

Air Quality

  Air Quality AQ Index Pollutant
Not available.

Snow Depth

Station Depth Elevation

Earthquake Activity

City Distance Mag. Time & Date
Minimum magnitude displayed is 2.5.

Coastal Water Temperatures

Place Temperature

Stations

Nearby Weather Stations

Station Location Temp. Windchill Dew Point Humidity Wind Precip. Elev Updated Type
                   

Watches & Warnings

High Wind Watch
Issued: 10:12 AM MST Feb. 14, 2016 – National Weather Service

... High wind watch remains in effect from late tonight through
late Monday night...

The National Weather Service in Cheyenne has issued a high wind
watch... which is in effect from late tonight through late Monday
night. A High Wind Warning remains in effect for early this
morning.

* Timing... periods of strong gusty winds will continue through
late Monday night.

* Winds... sustained west winds 30 to 45 mph with gusts to 65 mph.

* Impacts... mainly to transportation. Travel will be hazardous
to light weight and high profile vehicles... especially on
north to south oriented roadways.

Precautionary/preparedness actions...

A High Wind Warning means a hazardous high wind event is expected
or occurring. Sustained wind speeds of at least 40 mph or gusts
of 58 mph or more can lead to property damage. For detailed Road
and travel conditions in Wyoming and Nebraska... dial 5 1 1.